Time;durP1;ratioP1;P1;durP2;ratioP2;P2;SDS_P1;SDS_P2;PMS_P1;PMS_P2;Temp;Humidity;BMP_temperature;BMP_pressure;BME280_temperature;BME280_humidity;BME280_pressure;Samples;Min_cycle;Max_cycle;Signal;HPM_P1;HPM_P2
2022/09/07 00:00:12;;;;;;;2.85;2.55;;;;;;;12.67;74.98;93965.88;5049524;28;20108;-41
2022/09/07 00:02:38;;;;;;;4.88;2.75;;;;;;;12.62;75.38;93963.28;5049695;28;20112;-42
2022/09/07 00:05:04;;;;;;;3.20;2.88;;;;;;;12.73;74.62;93971.25;5049313;28;20025;-42
2022/09/07 00:07:29;;;;;;;2.30;2.08;;;;;;;12.77;74.90;93968.84;5049341;28;20498;-43
2022/09/07 00:09:55;;;;;;;3.50;2.42;;;;;;;12.81;74.53;93960.91;5049734;28;20023;-42
2022/09/07 00:12:20;;;;;;;4.47;2.70;;;;;;;12.72;74.79;93947.59;5049647;28;20025;-41
2022/09/07 00:14:46;;;;;;;5.65;3.25;;;;;;;12.65;75.25;93959.38;5049265;28;20109;-41
2022/09/07 00:17:11;;;;;;;5.55;2.70;;;;;;;12.62;74.96;93966.78;5049314;28;20053;-44
2022/09/07 00:19:37;;;;;;;2.72;2.47;;;;;;;12.51;76.01;93966.38;5049225;28;20021;-44
2022/09/07 00:22:02;;;;;;;3.83;2.67;;;;;;;12.61;75.49;93962.53;5049197;28;20048;-43
2022/09/07 00:24:28;;;;;;;2.95;2.70;;;;;;;12.71;75.30;93962.75;5049214;28;20029;-42
2022/09/07 00:26:54;;;;;;;7.03;6.63;;;;;;;12.74;75.66;93953.31;5049313;28;20111;-43
2022/09/07 00:29:20;;;;;;;3.05;2.75;;;;;;;12.72;76.29;93953.13;5049125;28;20513;-42
2022/09/07 00:31:46;;;;;;;4.60;4.30;;;;;;;12.80;76.33;93953.88;5048964;28;20029;-44
2022/09/07 00:34:11;;;;;;;2.90;2.47;;;;;;;12.86;76.47;93954.47;5046187;27;20054;-47
2022/09/07 00:36:37;;;;;;;3.83;2.40;;;;;;;12.67;76.93;93951.28;5048778;28;20049;-45
2022/09/07 00:39:02;;;;;;;3.53;2.67;;;;;;;12.72;76.41;93955.91;5049070;28;20095;-44
2022/09/07 00:41:28;;;;;;;7.55;2.92;;;;;;;12.78;76.35;93960.00;5047605;28;20025;-46
2022/09/07 00:43:55;;;;;;;3.75;2.35;;;;;;;12.69;74.84;93959.78;5031275;28;20029;-46
2022/09/07 00:46:28;;;;;;;3.55;3.22;;;;;;;12.67;75.43;93962.34;5044159;28;20437;-43
2022/09/07 00:48:57;;;;;;;4.45;2.92;;;;;;;12.72;74.78;93964.22;5048703;28;20029;-43
2022/09/07 00:51:28;;;;;;;2.67;2.47;;;;;;;12.74;74.76;93950.56;5048450;28;20046;-42
2022/09/07 00:54:30;;;;;;;3.42;2.50;;;;;;;12.63;74.87;93954.41;5047771;28;20464;-43
2022/09/07 00:56:55;;;;;;;3.40;2.60;;;;;;;12.56;75.22;93962.72;5048541;28;20558;-42
2022/09/07 00:59:38;;;;;;;3.60;3.00;;;;;;;12.54;75.12;93960.47;5048791;28;20025;-39
2022/09/07 01:02:04;;;;;;;3.95;2.53;;;;;;;12.57;74.54;93958.63;5048309;28;20046;-40
2022/09/07 01:04:31;;;;;;;2.75;2.55;;;;;;;12.48;74.79;93954.38;5048447;28;20036;-40
2022/09/07 01:06:58;;;;;;;2.47;2.15;;;;;;;12.48;75.48;93950.84;5047475;28;20024;-40
2022/09/07 01:09:24;;;;;;;3.75;2.80;;;;;;;12.59;74.97;93953.28;5047440;28;20056;-40
2022/09/07 01:11:51;;;;;;;5.05;2.67;;;;;;;12.48;75.37;93954.38;5047522;28;20029;-40
2022/09/07 01:14:20;;;;;;;2.97;2.75;;;;;;;12.48;74.89;93950.84;5047361;28;20434;-40
2022/09/07 01:17:04;;;;;;;3.38;2.58;;;;;;;12.46;74.31;93953.44;5047378;28;20033;-39
2022/09/07 01:19:49;;;;;;;5.47;2.38;;;;;;;12.41;74.44;93960.63;5048587;28;20085;-39
2022/09/07 01:22:52;;;;;;;3.25;2.78;;;;;;;12.23;75.55;93947.06;5048502;28;20029;-40
2022/09/07 01:25:39;;;;;;;2.28;2.08;;;;;;;12.32;77.85;93950.06;5048409;28;20028;-38
2022/09/07 01:28:10;;;;;;;4.25;2.75;;;;;;;12.23;77.99;93952.63;5047944;28;20077;-39
2022/09/07 01:30:37;;;;;;;3.35;3.03;;;;;;;12.19;78.30;93947.44;5048091;28;20024;-39
2022/09/07 01:33:35;;;;;;;4.72;2.95;;;;;;;12.17;77.08;93945.19;5048285;28;20048;-39
2022/09/07 01:36:31;;;;;;;2.70;2.50;;;;;;;12.19;76.95;93953.69;5024127;28;20056;-40
2022/09/07 01:39:02;;;;;;;4.28;2.90;;;;;;;12.22;75.65;93960.16;5036166;28;20123;-40
2022/09/07 01:41:42;;;;;;;3.20;2.88;;;;;;;12.26;75.47;93946.00;5036691;28;20408;-39
2022/09/07 01:44:33;;;;;;;4.97;3.13;;;;;;;12.30;75.58;93947.09;5036837;28;20028;-39
2022/09/07 01:47:18;;;;;;;4.18;3.30;;;;;;;12.28;74.96;93951.72;5033639;28;20042;-39
2022/09/07 01:49:51;;;;;;;5.97;3.15;;;;;;;12.24;75.24;93957.59;5037301;28;20013;-39
2022/09/07 01:53:01;;;;;;;3.22;2.83;;;;;;;12.18;74.95;93957.03;5036776;28;20029;-39
2022/09/07 01:55:29;;;;;;;3.20;2.92;;;;;;;12.00;74.89;93952.50;5035394;28;20056;-39
2022/09/07 01:58:06;;;;;;;8.07;4.00;;;;;;;11.95;75.23;93953.41;5036866;28;20022;-39
2022/09/07 02:00:33;;;;;;;2.88;2.60;;;;;;;12.01;74.91;93946.44;5045517;28;20032;-40
2022/09/07 02:03:06;;;;;;;3.75;3.25;;;;;;;11.94;75.09;93944.34;5046358;28;20485;-39
2022/09/07 02:05:47;;;;;;;4.10;3.70;;;;;;;11.89;75.47;93939.72;5046498;28;20085;-40
2022/09/07 02:08:15;;;;;;;5.50;3.05;;;;;;;11.79;75.56;93941.50;5047447;28;20029;-39
2022/09/07 02:10:47;;;;;;;2.72;2.33;;;;;;;11.68;75.97;93941.81;5047355;28;20029;-39
2022/09/07 02:13:18;;;;;;;4.45;3.55;;;;;;;11.69;75.37;93937.78;5045880;28;20413;-39
2022/09/07 02:15:48;;;;;;;3.40;2.83;;;;;;;11.80;74.23;93940.22;5046555;28;20101;-37
2022/09/07 02:18:13;;;;;;;4.07;3.47;;;;;;;11.67;74.68;93937.59;5046754;28;20021;-40
2022/09/07 02:20:46;;;;;;;4.05;3.65;;;;;;;11.72;73.66;93935.91;5047374;28;20562;-40
2022/09/07 02:23:24;;;;;;;5.43;3.75;;;;;;;11.66;73.67;93930.53;5047355;28;20025;-40
2022/09/07 02:25:54;;;;;;;4.47;3.42;;;;;;;11.67;73.59;93928.53;5046157;28;20029;-39
2022/09/07 02:28:28;;;;;;;4.55;3.35;;;;;;;11.56;73.89;93915.72;5046278;28;20021;-40
2022/09/07 02:30:54;;;;;;;4.45;3.38;;;;;;;11.56;74.73;93939.88;5045940;28;20111;-41
2022/09/07 02:33:19;;;;;;;4.15;3.75;;;;;;;11.52;75.11;93931.19;5045986;28;20132;-41
2022/09/07 02:35:45;;;;;;;5.45;4.57;;;;;;;11.52;75.13;93940.19;5031810;28;20128;-41
2022/09/07 02:38:11;;;;;;;3.67;3.38;;;;;;;11.48;74.50;93939.81;5025727;28;20017;-40
2022/09/07 02:40:36;;;;;;;3.78;3.35;;;;;;;11.54;74.21;93934.13;5027044;28;20032;-40
2022/09/07 02:43:05;;;;;;;5.70;3.60;;;;;;;11.53;74.23;93933.41;5037632;28;20055;-40
2022/09/07 02:46:01;;;;;;;6.55;4.07;;;;;;;11.46;74.10;93934.06;5045722;28;20033;-39
2022/09/07 02:48:45;;;;;;;3.97;3.60;;;;;;;11.40;74.81;93936.25;5046128;28;20041;-39
2022/09/07 02:51:28;;;;;;;4.15;3.35;;;;;;;11.33;74.71;93931.41;5036497;28;20074;-40
2022/09/07 02:54:10;;;;;;;3.50;3.08;;;;;;;11.40;74.21;93937.00;5025198;28;20053;-41
2022/09/07 02:56:38;;;;;;;3.33;3.03;;;;;;;11.37;73.44;93935.31;5044662;28;20031;-42
2022/09/07 02:59:25;;;;;;;4.30;3.83;;;;;;;11.31;73.00;93934.72;5046976;28;20557;-43
2022/09/07 03:02:11;;;;;;;5.00;3.63;;;;;;;11.28;73.01;93941.31;5045746;28;20036;-43
2022/09/07 03:04:39;;;;;;;3.92;3.53;;;;;;;11.08;74.36;93941.34;5045864;28;20413;-42
2022/09/07 03:07:09;;;;;;;5.67;3.00;;;;;;;11.04;74.52;93949.25;5045024;28;20081;-45
2022/09/07 03:09:37;;;;;;;5.18;4.22;;;;;;;11.07;74.46;93932.31;5045411;28;20410;-43
2022/09/07 03:12:04;;;;;;;5.47;4.50;;;;;;;11.08;74.71;93938.59;5045122;28;20118;-45
2022/09/07 03:14:32;;;;;;;7.75;4.15;;;;;;;10.97;74.48;93938.84;5046427;28;20528;-43
2022/09/07 03:16:58;;;;;;;4.97;3.58;;;;;;;11.04;74.73;93944.47;5046402;28;20025;-42
2022/09/07 03:19:23;;;;;;;4.88;3.70;;;;;;;11.06;74.54;93946.69;5045151;28;20157;-44
2022/09/07 03:21:49;;;;;;;9.60;3.65;;;;;;;11.01;73.97;93950.31;5046677;28;20104;-45
2022/09/07 03:24:14;;;;;;;3.45;2.97;;;;;;;11.00;74.05;93946.81;5046349;28;20466;-42
2022/09/07 03:26:44;;;;;;;4.07;3.22;;;;;;;11.07;74.03;93946.13;5048871;28;20446;-42
2022/09/07 03:29:09;;;;;;;4.28;3.88;;;;;;;10.86;74.34;93945.41;5049794;28;20501;-43
2022/09/07 03:31:35;;;;;;;5.03;3.70;;;;;;;10.85;73.98;93951.47;5049625;28;20046;-42
2022/09/07 03:34:01;;;;;;;3.78;3.35;;;;;;;10.81;73.80;93951.03;5050029;28;20029;-42
2022/09/07 03:36:28;;;;;;;3.85;3.28;;;;;;;10.82;73.88;93945.00;5048980;28;20060;-44
2022/09/07 03:38:54;;;;;;;3.38;2.78;;;;;;;10.83;73.68;93948.50;5049474;28;20077;-43
2022/09/07 03:41:19;;;;;;;3.33;3.00;;;;;;;10.74;74.33;93946.94;5048865;28;20439;-42
2022/09/07 03:43:44;;;;;;;3.47;3.17;;;;;;;10.79;74.76;93953.59;5048177;28;20024;-42
2022/09/07 03:46:10;;;;;;;7.55;4.07;;;;;;;10.62;75.25;93948.47;5049440;28;20025;-42
2022/09/07 03:48:37;;;;;;;5.00;4.18;;;;;;;10.64;75.09;93956.97;5049713;28;20025;-41
2022/09/07 03:51:06;;;;;;;10.15;3.95;;;;;;;10.68;73.85;93958.13;5049704;28;20501;-40
2022/09/07 03:53:36;;;;;;;4.88;3.85;;;;;;;10.71;73.64;93956.31;5039126;28;20110;-41
2022/09/07 03:56:07;;;;;;;5.63;4.22;;;;;;;10.72;73.20;93966.06;5032606;28;20081;-42
2022/09/07 03:58:33;;;;;;;5.07;2.95;;;;;;;10.69;73.04;93964.38;5049642;28;20398;-41
2022/09/07 04:01:00;;;;;;;4.97;3.28;;;;;;;10.66;73.71;93966.19;5049190;28;20028;-41
2022/09/07 04:03:25;;;;;;;5.15;4.05;;;;;;;10.58;73.74;93970.16;5039788;28;20156;-42
2022/09/07 04:05:51;;;;;;;3.75;3.25;;;;;;;10.57;73.62;93968.66;5041898;28;20033;-41
2022/09/07 04:08:16;;;;;;;4.55;3.17;;;;;;;10.46;73.68;93969.66;5027704;28;20025;-42
2022/09/07 04:10:42;;;;;;;4.40;3.63;;;;;;;10.43;74.02;93962.47;5028824;28;20090;-42
2022/09/07 04:13:08;;;;;;;5.10;3.97;;;;;;;10.53;73.41;93971.00;5028002;28;20033;-42
2022/09/07 04:15:34;;;;;;;6.75;4.65;;;;;;;10.56;73.49;93969.94;5029395;28;20025;-40
2022/09/07 04:18:00;;;;;;;6.53;4.50;;;;;;;10.59;73.20;93966.84;5029465;28;20471;-41
2022/09/07 04:20:25;;;;;;;6.30;4.30;;;;;;;10.62;73.48;93982.34;5029365;28;20109;-40
2022/09/07 04:22:51;;;;;;;5.50;3.90;;;;;;;10.61;72.13;93974.63;5027690;28;20029;-42
2022/09/07 04:25:17;;;;;;;9.23;4.65;;;;;;;10.55;72.64;93971.97;5027361;28;20086;-41
2022/09/07 04:27:42;;;;;;;6.75;4.32;;;;;;;10.53;72.84;93974.53;5027144;28;20030;-41
2022/09/07 04:30:09;;;;;;;7.53;4.65;;;;;;;10.48;73.45;93972.63;5027068;28;20109;-41
2022/09/07 04:32:35;;;;;;;7.43;3.63;;;;;;;10.38;73.48;93977.13;5027194;28;20030;-42
2022/09/07 04:35:00;;;;;;;7.95;3.25;;;;;;;10.37;72.80;93978.38;5033790;27;20440;-41
2022/09/07 04:37:26;;;;;;;6.22;4.10;;;;;;;10.29;74.06;93982.31;5046845;28;20045;-41
2022/09/07 04:39:51;;;;;;;7.97;3.58;;;;;;;10.41;73.76;93987.09;5048726;28;20588;-40
2022/09/07 04:42:17;;;;;;;5.85;3.85;;;;;;;10.42;74.46;93983.03;5048735;28;20085;-39
2022/09/07 04:44:43;;;;;;;5.68;3.83;;;;;;;10.22;74.11;93964.41;5048719;28;20051;-40
2022/09/07 04:47:08;;;;;;;7.05;3.60;;;;;;;10.36;74.21;93976.91;5048729;28;20509;-41
2022/09/07 04:49:34;;;;;;;4.50;3.75;;;;;;;10.37;74.50;93980.41;5048729;28;20051;-42
2022/09/07 04:51:59;;;;;;;5.40;3.65;;;;;;;10.29;75.52;93974.03;5048584;28;20600;-40
2022/09/07 04:54:25;;;;;;;8.20;3.97;;;;;;;10.41;75.72;93978.81;5048208;28;20033;-40
2022/09/07 04:56:51;;;;;;;9.98;3.88;;;;;;;10.45;75.50;93968.19;5048301;28;20463;-40
2022/09/07 04:59:16;;;;;;;5.55;3.63;;;;;;;10.48;74.35;93960.84;5048491;28;20028;-40
2022/09/07 05:01:42;;;;;;;4.50;3.83;;;;;;;10.61;74.50;93971.84;5048204;28;20029;-40
2022/09/07 05:04:08;;;;;;;4.68;3.38;;;;;;;10.64;74.89;93968.75;5048401;28;20025;-40
2022/09/07 05:06:33;;;;;;;7.45;3.40;;;;;;;10.73;75.40;93970.31;5048074;28;20025;-40
2022/09/07 05:08:59;;;;;;;6.18;3.88;;;;;;;10.78;75.66;93982.50;5047494;28;20032;-40
2022/09/07 05:11:25;;;;;;;3.42;3.13;;;;;;;10.83;76.14;93976.13;5047872;28;20032;-41
2022/09/07 05:13:50;;;;;;;4.05;3.28;;;;;;;10.88;76.34;93970.47;5037502;28;20052;-40
2022/09/07 05:16:22;;;;;;;4.50;3.55;;;;;;;10.94;76.81;93975.84;5028322;28;20487;-40
2022/09/07 05:18:49;;;;;;;3.67;3.33;;;;;;;11.07;77.05;93970.25;5028346;28;20035;-40
2022/09/07 05:21:20;;;;;;;4.95;3.38;;;;;;;11.12;76.92;93977.69;5029127;28;20083;-40
2022/09/07 05:23:49;;;;;;;4.60;3.58;;;;;;;11.15;77.08;93973.84;5035362;28;20032;-41
2022/09/07 05:26:14;;;;;;;4.90;3.30;;;;;;;11.20;77.38;93984.75;5043400;28;20528;-40
2022/09/07 05:28:40;;;;;;;5.38;3.65;;;;;;;11.29;77.70;93978.00;5040632;28;20303;-41
2022/09/07 05:31:13;;;;;;;4.22;3.67;;;;;;;11.39;77.63;93976.25;5037231;28;20014;-40
2022/09/07 05:33:39;;;;;;;5.35;3.95;;;;;;;11.53;77.30;93974.13;5042053;28;20516;-40
2022/09/07 05:36:05;;;;;;;9.07;4.43;;;;;;;11.57;77.92;93969.00;5040853;28;20048;-40
2022/09/07 05:38:35;;;;;;;4.78;4.07;;;;;;;11.68;77.64;93985.31;5037043;28;20060;-40
2022/09/07 05:41:08;;;;;;;6.72;4.88;;;;;;;11.78;77.78;93975.97;5037522;28;20213;-43
2022/09/07 05:43:34;;;;;;;7.30;5.05;;;;;;;11.86;78.30;93976.03;5036002;28;20497;-41
2022/09/07 05:45:59;;;;;;;7.53;4.30;;;;;;;11.96;78.29;93975.00;5035757;28;20021;-42
2022/09/07 05:48:24;;;;;;;7.50;4.38;;;;;;;12.05;78.29;93974.50;5039662;28;20077;-41
2022/09/07 05:50:51;;;;;;;10.00;6.93;;;;;;;12.18;78.48;93976.41;5047719;28;20052;-44
2022/09/07 05:53:18;;;;;;;11.32;7.25;;;;;;;12.23;78.87;93974.75;5047720;28;20041;-44
2022/09/07 05:55:44;;;;;;;21.20;10.52;;;;;;;12.36;80.21;93972.59;5047596;28;20024;-40
2022/09/07 05:58:10;;;;;;;24.23;13.90;;;;;;;12.47;80.28;93971.53;5119942;27;20556;-42
2022/09/07 06:00:35;;;;;;;23.95;13.85;;;;;;;12.64;80.38;93964.22;5062671;27;20041;-40
2022/09/07 06:03:01;;;;;;;26.17;14.75;;;;;;;12.71;79.61;93957.22;5047135;28;20477;-40
2022/09/07 06:05:26;;;;;;;23.08;13.05;;;;;;;12.79;79.31;93957.97;5044320;28;20040;-40
2022/09/07 06:07:52;;;;;;;19.52;12.68;;;;;;;12.91;78.34;93951.50;5038392;28;20032;-40
2022/09/07 06:10:17;;;;;;;17.83;10.32;;;;;;;13.11;78.06;93965.78;5046177;28;20614;-40
2022/09/07 06:12:46;;;;;;;15.27;8.10;;;;;;;13.35;77.13;93968.03;5046155;28;20075;-39
2022/09/07 06:15:12;;;;;;;11.23;8.40;;;;;;;13.44;76.39;93959.16;5045680;28;20028;-40
2022/09/07 06:17:37;;;;;;;35.05;19.20;;;;;;;13.60;76.04;93953.03;5045641;28;20021;-41
2022/09/07 06:20:04;;;;;;;39.97;22.35;;;;;;;13.86;76.16;93954.66;5046004;28;20025;-40
2022/09/07 06:22:29;;;;;;;20.60;14.40;;;;;;;14.19;75.58;93964.59;5045502;28;20472;-41
2022/09/07 06:24:55;;;;;;;8.73;5.75;;;;;;;14.55;72.54;93966.34;5033997;28;20028;-41
2022/09/07 06:27:20;;;;;;;6.95;5.05;;;;;;;14.68;72.31;93960.53;5043206;28;20720;-40
2022/09/07 06:29:46;;;;;;;3.38;2.88;;;;;;;15.06;69.82;93959.03;5043227;28;20032;-40
2022/09/07 06:32:11;;;;;;;4.15;2.30;;;;;;;15.22;68.45;93964.47;5043254;28;20090;-39
2022/09/07 06:34:36;;;;;;;3.00;2.55;;;;;;;15.41;67.29;93959.88;5043199;27;20032;-40
2022/09/07 06:37:02;;;;;;;2.95;2.42;;;;;;;15.63;67.77;93958.25;5042850;28;20467;-40
2022/09/07 06:39:27;;;;;;;2.35;1.83;;;;;;;15.67;65.88;93961.38;5043155;28;20494;-39
2022/09/07 06:41:53;;;;;;;2.95;1.70;;;;;;;15.91;62.89;93958.56;5043738;28;20093;-40
2022/09/07 06:44:19;;;;;;;2.72;2.08;;;;;;;16.04;62.68;93953.97;5043498;28;20422;-41
2022/09/07 06:46:44;;;;;;;2.00;1.80;;;;;;;16.09;62.94;93953.72;5044043;28;20032;-38
2022/09/07 06:49:10;;;;;;;3.97;2.35;;;;;;;16.25;63.63;93966.19;5043504;28;20036;-39
2022/09/07 06:51:35;;;;;;;2.90;2.20;;;;;;;16.45;62.11;93961.50;5042897;28;20028;-39
2022/09/07 06:54:04;;;;;;;2.10;1.90;;;;;;;16.48;61.03;93957.59;5042833;28;20037;-40
2022/09/07 06:56:30;;;;;;;2.20;1.93;;;;;;;16.74;60.26;93975.69;5043602;28;20113;-40
2022/09/07 06:58:58;;;;;;;2.15;1.92;;;;;;;16.83;60.11;93978.53;5043007;28;20107;-40
2022/09/07 07:01:24;;;;;;;2.03;1.85;;;;;;;17.19;59.61;93975.09;5027085;28;20448;-40
2022/09/07 07:03:52;;;;;;;2.15;1.40;;;;;;;18.10;56.52;93977.91;5025897;28;20094;-42
2022/09/07 07:06:17;;;;;;;2.08;1.70;;;;;;;18.83;53.65;93969.28;5030447;28;20483;-42
2022/09/07 07:08:43;;;;;;;1.73;1.33;;;;;;;19.30;52.42;93976.84;5043678;28;20104;-40
2022/09/07 07:11:13;;;;;;;2.85;1.75;;;;;;;20.19;50.38;93972.50;5044846;28;20109;-40
2022/09/07 07:13:40;;;;;;;2.08;1.50;;;;;;;20.36;47.97;93968.72;5026312;28;20026;-40
2022/09/07 07:16:11;;;;;;;1.67;1.42;;;;;;;21.05;46.32;93965.53;5026777;28;20029;-39
2022/09/07 07:18:37;;;;;;;2.17;1.60;;;;;;;21.63;45.06;93971.25;5026591;28;20519;-39
2022/09/07 07:21:04;;;;;;;1.60;1.50;;;;;;;22.16;41.52;93964.66;5030663;28;20026;-42
2022/09/07 07:23:30;;;;;;;1.05;1.00;;;;;;;22.89;42.74;93963.28;5034922;28;20024;-43
2022/09/07 07:26:03;;;;;;;3.58;1.58;;;;;;;23.59;39.75;93966.47;5034012;28;20026;-39
2022/09/07 07:28:28;;;;;;;1.48;1.38;;;;;;;24.14;38.81;93961.66;5035597;28;20040;-45
2022/09/07 07:30:55;;;;;;;1.20;1.10;;;;;;;24.72;37.13;93968.19;5041993;28;20032;-43
2022/09/07 07:33:21;;;;;;;1.75;1.08;;;;;;;25.03;35.63;93964.81;5037558;28;20097;-41
2022/09/07 07:35:46;;;;;;;1.17;1.08;;;;;;;25.73;34.63;93972.38;5035631;28;20025;-40
2022/09/07 07:38:12;;;;;;;2.00;1.88;;;;;;;26.28;33.23;93973.47;5038396;28;20022;-42
2022/09/07 07:40:37;;;;;;;4.55;1.10;;;;;;;26.61;32.88;93975.59;5034621;28;20029;-41
2022/09/07 07:43:03;;;;;;;1.25;1.15;;;;;;;26.54;32.07;93980.28;5040480;27;20560;-40
2022/09/07 07:45:28;;;;;;;0.90;0.90;;;;;;;26.32;32.90;93979.31;5034760;28;20029;-40
2022/09/07 07:47:54;;;;;;;0.98;0.98;;;;;;;26.13;32.70;93986.28;5032117;28;20041;-44
2022/09/07 07:50:19;;;;;;;1.20;0.95;;;;;;;25.65;32.17;93978.38;5036098;28;20056;-40
2022/09/07 07:52:45;;;;;;;1.35;1.25;;;;;;;25.88;32.54;93983.69;5037534;28;20024;-40
2022/09/07 07:55:10;;;;;;;2.10;1.30;;;;;;;26.56;33.13;93985.28;5036505;28;20532;-40
2022/09/07 07:57:36;;;;;;;1.40;1.30;;;;;;;26.29;32.17;93986.97;5032593;28;20418;-40
2022/09/07 08:00:02;;;;;;;1.08;0.95;;;;;;;27.17;32.04;93985.75;5034220;28;20031;-43
2022/09/07 08:02:28;;;;;;;1.23;0.93;;;;;;;27.52;30.33;93986.53;5035065;28;20097;-42
2022/09/07 08:04:53;;;;;;;1.83;1.20;;;;;;;27.78;30.02;93978.31;5045634;27;20025;-42
2022/09/07 08:07:19;;;;;;;0.75;0.75;;;;;;;27.99;28.67;93980.56;5033980;27;20464;-41
2022/09/07 08:09:46;;;;;;;2.08;1.30;;;;;;;28.44;28.44;93985.75;5032755;28;20022;-39
2022/09/07 08:12:16;;;;;;;0.90;0.77;;;;;;;28.28;28.45;93980.25;5033456;28;20059;-40
2022/09/07 08:14:42;;;;;;;3.95;0.77;;;;;;;28.87;28.27;93982.34;5033051;28;20430;-40
2022/09/07 08:17:12;;;;;;;1.00;1.00;;;;;;;27.70;29.45;93992.16;5038115;28;20044;-40
2022/09/07 08:19:37;;;;;;;2.90;1.20;;;;;;;26.94;29.78;93999.00;5032405;28;20079;-42
2022/09/07 08:22:03;;;;;;;0.90;0.80;;;;;;;27.03;30.17;94000.06;5040114;28;20405;-40
2022/09/07 08:24:31;;;;;;;1.30;1.20;;;;;;;27.28;30.44;93994.03;5031341;28;20116;-42
2022/09/07 08:26:57;;;;;;;0.80;0.80;;;;;;;27.45;30.11;93989.78;5037088;28;20111;-43
2022/09/07 08:29:23;;;;;;;1.42;1.20;;;;;;;27.81;29.56;93990.47;5038430;28;20047;-45
2022/09/07 08:31:48;;;;;;;1.20;1.10;;;;;;;28.38;29.96;93980.59;5037361;28;20030;-42
2022/09/07 08:34:14;;;;;;;1.30;1.20;;;;;;;29.78;28.82;93983.94;5032470;27;20029;-43
2022/09/07 08:36:39;;;;;;;2.38;0.90;;;;;;;30.20;26.70;93983.75;5036575;28;20057;-43
2022/09/07 08:39:04;;;;;;;1.20;0.80;;;;;;;29.68;28.17;93974.34;5033427;28;20060;-43
2022/09/07 08:41:55;;;;;;;1.08;0.98;;;;;;;30.24;27.19;93972.47;5035241;28;20033;-42
2022/09/07 08:44:32;;;;;;;1.13;1.00;;;;;;;29.58;26.67;93974.03;5034002;28;20033;-41
2022/09/07 08:47:02;;;;;;;1.43;1.10;;;;;;;29.77;27.11;93962.59;5042973;27;20477;-41
2022/09/07 08:50:00;;;;;;;0.98;0.95;;;;;;;30.09;26.51;93967.78;5035047;28;20828;-40
2022/09/07 08:52:28;;;;;;;1.15;0.88;;;;;;;30.50;27.63;93970.41;5034703;28;20041;-40
2022/09/07 08:55:12;;;;;;;1.08;0.95;;;;;;;30.82;26.46;93959.19;5040394;27;20029;-42
2022/09/07 08:57:40;;;;;;;1.25;0.85;;;;;;;31.64;26.22;93952.00;5030089;28;20039;-42
2022/09/07 09:00:07;;;;;;;;;;;;;;;31.23;25.12;93962.41;5048942;28;20486;-44
2022/09/07 09:02:33;;;;;;;2.35;0.73;;;;;;;30.80;25.09;93931.31;5032336;28;19916;-41
2022/09/07 09:04:59;;;;;;;1.00;1.00;;;;;;;31.15;25.47;93950.06;5043396;27;20070;-41
2022/09/07 09:07:39;;;;;;;1.42;1.33;;;;;;;30.61;26.47;93952.94;5035166;28;20470;-42
2022/09/07 09:10:07;;;;;;;1.25;1.17;;;;;;;30.13;27.05;93953.66;5032001;28;20025;-42
2022/09/07 09:12:54;;;;;;;1.73;1.63;;;;;;;29.79;28.43;93937.03;5033165;28;20036;-42
2022/09/07 09:15:50;;;;;;;0.80;0.70;;;;;;;30.25;27.17;93936.91;5032394;28;20157;-43
2022/09/07 09:18:34;;;;;;;2.40;1.50;;;;;;;30.58;26.33;93933.59;5027926;28;20177;-43
2022/09/07 09:21:00;;;;;;;1.30;0.98;;;;;;;31.16;25.95;93935.16;5036081;28;20039;-42
2022/09/07 09:23:30;;;;;;;1.10;1.00;;;;;;;31.33;25.60;93942.69;5035747;28;20510;-43
2022/09/07 09:26:22;;;;;;;1.35;1.10;;;;;;;31.03;25.67;93939.09;5034488;28;20028;-41
2022/09/07 09:28:48;;;;;;;1.70;1.50;;;;;;;31.05;25.46;93939.16;5018501;28;20038;-42
2022/09/07 09:31:19;;;;;;;1.13;1.00;;;;;;;31.63;25.23;93939.84;5037047;27;20106;-42
2022/09/07 09:34:04;;;;;;;2.28;1.23;;;;;;;31.80;24.51;93932.38;5033934;28;20094;-41
2022/09/07 09:36:53;;;;;;;1.90;1.35;;;;;;;32.05;26.28;93932.25;5034244;28;20525;-42
2022/09/07 09:39:31;;;;;;;1.00;0.95;;;;;;;32.10;24.84;93925.22;5033079;28;20683;-42
2022/09/07 09:42:08;;;;;;;2.60;1.08;;;;;;;32.94;24.41;93930.44;5035636;28;20485;-42
2022/09/07 09:44:36;;;;;;;1.17;1.08;;;;;;;32.77;23.39;93918.69;5032169;28;20034;-40
2022/09/07 09:47:02;;;;;;;1.00;0.70;;;;;;;32.66;23.37;93922.78;5033897;28;20459;-43
2022/09/07 09:49:34;;;;;;;1.33;1.20;;;;;;;31.97;24.01;93925.63;5036565;28;20172;-42
2022/09/07 09:52:02;;;;;;;1.00;0.98;;;;;;;31.65;24.11;93919.91;5035319;28;20124;-42
2022/09/07 09:54:32;;;;;;;1.30;1.20;;;;;;;32.23;25.34;93914.75;5035988;28;20096;-42
2022/09/07 09:56:58;;;;;;;1.70;1.25;;;;;;;32.46;23.43;93913.06;5034020;28;21225;-40
2022/09/07 09:59:28;;;;;;;1.00;0.90;;;;;;;32.70;23.46;93916.44;5019954;28;20094;-41
2022/09/07 10:01:54;;;;;;;1.75;1.30;;;;;;;33.02;23.71;93899.13;5035560;28;20918;-40
2022/09/07 10:04:22;;;;;;;1.45;0.82;;;;;;;32.56;23.76;93908.31;5036041;28;20038;-42
2022/09/07 10:06:53;;;;;;;1.30;1.20;;;;;;;32.97;23.93;93917.59;5034063;28;20124;-42
2022/09/07 10:09:21;;;;;;;1.17;1.02;;;;;;;33.15;22.29;93917.97;5034427;28;20041;-41
2022/09/07 10:11:49;;;;;;;1.35;1.08;;;;;;;33.46;23.11;93914.19;5036792;28;20030;-41
2022/09/07 10:14:29;;;;;;;1.45;1.30;;;;;;;32.42;23.19;93896.56;5034155;28;20166;-41
2022/09/07 10:16:56;;;;;;;1.10;1.05;;;;;;;31.54;24.08;93908.94;5033899;28;20033;-44
2022/09/07 10:19:33;;;;;;;1.52;1.42;;;;;;;31.30;24.26;93914.78;5032677;28;20731;-40
2022/09/07 10:22:04;;;;;;;2.22;1.55;;;;;;;31.95;24.11;93908.44;5034766;28;20022;-39
2022/09/07 10:24:35;;;;;;;3.28;1.80;;;;;;;32.07;23.55;93903.00;5037002;28;20033;-40
2022/09/07 10:27:18;;;;;;;2.55;1.20;;;;;;;32.98;23.63;93899.78;5033966;28;20029;-41
2022/09/07 10:29:43;;;;;;;1.02;0.90;;;;;;;33.18;21.85;93897.25;5040745;28;20098;-41
2022/09/07 10:32:18;;;;;;;2.85;2.55;;;;;;;32.74;23.21;93893.63;5038252;27;20486;-40
2022/09/07 10:35:08;;;;;;;1.60;1.38;;;;;;;32.89;22.97;93892.47;5041813;28;20026;-42
2022/09/07 10:37:58;;;;;;;1.35;1.25;;;;;;;33.15;21.93;93880.75;5038779;28;20064;-42
2022/09/07 10:40:57;;;;;;;1.80;1.13;;;;;;;33.47;23.04;93889.84;5045991;28;20116;-41
2022/09/07 10:43:48;;;;;;;1.42;1.33;;;;;;;33.46;21.34;93888.41;5034726;28;20049;-41
2022/09/07 10:46:28;;;;;;;1.30;1.10;;;;;;;32.75;21.64;93887.22;5037140;28;20026;-38
2022/09/07 10:49:26;;;;;;;1.33;1.23;;;;;;;32.26;23.10;93889.81;5029786;28;20433;-38
2022/09/07 10:52:07;;;;;;;1.48;1.08;;;;;;;32.23;22.98;93883.31;5046085;28;20474;-38
2022/09/07 10:54:51;;;;;;;1.23;1.10;;;;;;;32.92;22.90;93886.06;5046182;28;20029;-39
2022/09/07 10:57:25;;;;;;;1.55;1.45;;;;;;;33.32;22.99;93880.34;5046151;28;20029;-39
2022/09/07 11:00:10;;;;;;;0.95;0.95;;;;;;;33.28;21.39;93880.28;5046197;28;20033;-38
2022/09/07 11:03:13;;;;;;;0.95;0.90;;;;;;;32.78;21.33;93874.41;5043632;28;20069;-39
2022/09/07 11:06:14;;;;;;;3.58;0.95;;;;;;;31.99;23.10;93880.69;5034945;28;20506;-38
2022/09/07 11:08:55;;;;;;;1.67;1.30;;;;;;;31.54;24.81;93874.69;5033815;28;20037;-39
2022/09/07 11:11:34;;;;;;;1.60;1.10;;;;;;;31.76;24.29;93861.63;5033639;28;20041;-38
2022/09/07 11:14:07;;;;;;;1.20;1.10;;;;;;;31.97;24.27;93874.94;5040664;28;20041;-40
2022/09/07 11:16:36;;;;;;;1.30;1.20;;;;;;;32.32;24.16;93864.19;5024734;28;20057;-39
2022/09/07 11:19:02;;;;;;;1.67;1.20;;;;;;;32.41;23.07;93877.97;5025301;28;20025;-39
2022/09/07 11:22:00;;;;;;;1.27;1.10;;;;;;;32.52;22.41;93868.22;5025577;28;20040;-40
2022/09/07 11:24:46;;;;;;;2.83;1.20;;;;;;;31.89;22.31;93874.03;5029101;28;20045;-42
2022/09/07 11:27:18;;;;;;;1.33;1.20;;;;;;;30.78;24.01;93865.69;5024452;28;20506;-41
2022/09/07 11:29:51;;;;;;;0.90;0.90;;;;;;;30.47;24.63;93881.28;5036776;28;20037;-43
2022/09/07 11:32:23;;;;;;;1.00;0.90;;;;;;;30.21;23.89;93868.44;5032059;28;20033;-41
2022/09/07 11:35:00;;;;;;;0.70;0.70;;;;;;;30.32;23.32;93861.66;5031703;28;20066;-42
2022/09/07 11:37:42;;;;;;;1.10;0.93;;;;;;;30.37;23.54;93861.09;5025472;28;20046;-38
2022/09/07 11:40:29;;;;;;;0.73;0.73;;;;;;;30.13;24.17;93860.38;5039516;28;20086;-39
2022/09/07 11:43:30;;;;;;;1.63;1.02;;;;;;;30.09;24.59;93854.59;5036603;28;20033;-39
2022/09/07 11:46:24;;;;;;;0.85;0.80;;;;;;;30.16;23.29;93858.31;5026701;28;20033;-41
2022/09/07 11:49:00;;;;;;;1.13;0.90;;;;;;;30.15;24.81;93859.75;5031961;28;20040;-43
2022/09/07 11:51:39;;;;;;;0.90;0.80;;;;;;;29.84;24.82;93844.63;5036601;28;20033;-44